Time;durP1;ratioP1;P1;durP2;ratioP2;P2;SDS_P1;SDS_P2;PMS_P1;PMS_P2;Temp;Humidity;BMP_temperature;BMP_pressure;BME280_temperature;BME280_humidity;BME280_pressure;Samples;Min_cycle;Max_cycle;Signal;HPM_P1;HPM_P2
2022/08/27 00:01:15;;;;;;;14.45;7.57;;;27.40;61.30;;;;;;6098613;23;20346;-67
2022/08/27 00:03:42;;;;;;;14.02;8.57;;;27.40;61.30;;;;;;6098534;23;20081;-67
2022/08/27 00:06:10;;;;;;;17.60;8.40;;;27.40;61.10;;;;;;6098380;23;20014;-66
2022/08/27 00:08:36;;;;;;;16.48;7.95;;;27.40;61.20;;;;;;6098679;23;20010;-66
2022/08/27 00:11:01;;;;;;;18.35;9.18;;;27.30;61.20;;;;;;6098597;23;20070;-66
2022/08/27 00:13:27;;;;;;;15.18;8.48;;;27.30;61.30;;;;;;6098297;23;20007;-66
2022/08/27 00:15:53;;;;;;;17.17;8.13;;;27.30;61.40;;;;;;6098455;23;20333;-67
2022/08/27 00:18:19;;;;;;;12.57;8.38;;;27.30;61.60;;;;;;6098131;23;20073;-67
2022/08/27 00:20:45;;;;;;;14.85;8.35;;;27.20;61.50;;;;;;6097991;23;20018;-67
2022/08/27 00:23:13;;;;;;;17.02;8.80;;;27.20;61.30;;;;;;6098228;23;20010;-66
2022/08/27 00:25:39;;;;;;;21.38;8.10;;;27.20;61.50;;;;;;6098274;23;20040;-66
2022/08/27 00:28:05;;;;;;;15.27;8.50;;;27.10;61.80;;;;;;6097904;23;19998;-67
2022/08/27 00:30:31;;;;;;;17.50;9.02;;;27.10;62.60;;;;;;6097824;23;20070;-66
2022/08/27 00:32:56;;;;;;;13.15;8.75;;;27.00;62.10;;;;;;6098461;23;20453;-67
2022/08/27 00:35:22;;;;;;;12.43;8.57;;;27.00;62.20;;;;;;6097885;23;20017;-66
2022/08/27 00:37:49;;;;;;;16.60;8.57;;;27.00;62.40;;;;;;6098147;23;20057;-67
2022/08/27 00:40:19;;;;;;;17.05;8.48;;;27.00;62.70;;;;;;6097923;23;20002;-66
2022/08/27 00:42:45;;;;;;;15.30;8.07;;;27.00;62.50;;;;;;6097987;23;20078;-67
2022/08/27 00:45:14;;;;;;;12.77;8.00;;;27.00;62.60;;;;;;6098250;23;20014;-65
2022/08/27 00:47:44;;;;;;;14.82;8.15;;;26.90;62.50;;;;;;6098055;23;20002;-66
2022/08/27 00:50:14;;;;;;;13.60;7.40;;;27.00;62.80;;;;;;6097820;23;20002;-66
2022/08/27 00:53:06;;;;;;;27.73;7.78;;;26.90;62.80;;;;;;6098185;23;20006;-67
2022/08/27 00:55:41;;;;;;;13.65;7.88;;;26.90;62.40;;;;;;6098115;23;20030;-66
2022/08/27 00:58:15;;;;;;;16.13;8.10;;;26.90;62.60;;;;;;6097831;23;20130;-67
2022/08/27 01:00:41;;;;;;;13.93;8.82;;;26.80;62.60;;;;;;6097664;23;20050;-66
2022/08/27 01:03:07;;;;;;;13.45;8.63;;;26.80;62.60;;;;;;6098028;23;20010;-66
2022/08/27 01:05:35;;;;;;;20.83;9.77;;;26.70;62.70;;;;;;6097798;23;20029;-67
2022/08/27 01:08:14;;;;;;;17.77;8.40;;;26.70;62.90;;;;;;6097619;23;20042;-67
2022/08/27 01:10:40;;;;;;;12.50;8.52;;;26.70;63.00;;;;;;6098070;23;20026;-66
2022/08/27 01:13:09;;;;;;;17.52;8.60;;;26.70;63.10;;;;;;6097761;23;20006;-66
2022/08/27 01:15:34;;;;;;;17.25;9.68;;;26.60;63.00;;;;;;6097643;23;20307;-66
2022/08/27 01:18:04;;;;;;;15.68;9.70;;;26.60;63.20;;;;;;6097923;23;20014;-66
2022/08/27 01:20:54;;;;;;;17.38;9.27;;;26.60;63.20;;;;;;6097867;23;20002;-67
2022/08/27 01:23:35;;;;;;;16.90;9.32;;;26.50;62.80;;;;;;6055451;23;20074;-66
2022/08/27 01:26:02;;;;;;;16.02;9.18;;;26.50;63.00;;;;;;6097682;23;20007;-67
2022/08/27 01:28:31;;;;;;;17.50;9.43;;;26.50;63.10;;;;;;6097633;23;20002;-67
2022/08/27 01:30:57;;;;;;;14.95;9.40;;;26.50;63.10;;;;;;6097543;23;20003;-67
2022/08/27 01:33:23;;;;;;;18.25;9.95;;;26.40;63.00;;;;;;6097360;23;20005;-66
2022/08/27 01:35:50;;;;;;;22.90;10.50;;;26.40;63.30;;;;;;6097351;23;20434;-66
2022/08/27 01:38:17;;;;;;;17.15;11.07;;;26.30;63.30;;;;;;6097675;23;20013;-66
2022/08/27 01:40:43;;;;;;;22.73;11.95;;;26.30;63.40;;;;;;6097241;23;20018;-66
2022/08/27 01:43:09;;;;;;;20.48;11.95;;;26.30;63.40;;;;;;6097428;23;20026;-66
2022/08/27 01:45:39;;;;;;;23.10;12.30;;;26.30;63.40;;;;;;6097217;23;20088;-66
2022/08/27 01:48:06;;;;;;;21.75;12.63;;;26.20;63.40;;;;;;6097333;23;20002;-66
2022/08/27 01:50:36;;;;;;;22.83;12.85;;;26.20;63.40;;;;;;6097708;23;20006;-67
2022/08/27 01:53:09;;;;;;;20.23;12.15;;;26.20;63.70;;;;;;6097472;23;19998;-66
2022/08/27 01:55:36;;;;;;;24.63;13.27;;;26.10;63.70;;;;;;6097317;23;20003;-66
2022/08/27 01:58:02;;;;;;;17.92;11.57;;;26.10;63.60;;;;;;6097502;23;20018;-67
2022/08/27 02:00:31;;;;;;;20.70;12.65;;;26.00;63.70;;;;;;6096939;23;20061;-67
2022/08/27 02:02:58;;;;;;;20.38;12.02;;;26.00;63.80;;;;;;6097304;23;20421;-66
2022/08/27 02:05:25;;;;;;;18.40;11.73;;;26.00;64.00;;;;;;6097243;23;20066;-67
2022/08/27 02:07:51;;;;;;;21.17;11.88;;;26.00;64.80;;;;;;6097265;23;20003;-67
2022/08/27 02:10:22;;;;;;;16.52;10.70;;;26.00;64.20;;;;;;6097136;23;20065;-66
2022/08/27 02:12:48;;;;;;;16.33;11.68;;;26.00;64.10;;;;;;6097552;23;20433;-67
2022/08/27 02:15:14;;;;;;;14.25;10.93;;;25.90;64.10;;;;;;6097162;23;20073;-67
2022/08/27 02:17:40;;;;;;;15.02;10.68;;;25.90;64.40;;;;;;6097373;23;20033;-66
2022/08/27 02:20:08;;;;;;;14.95;10.60;;;25.90;64.50;;;;;;6096970;23;20333;-67
2022/08/27 02:22:34;;;;;;;15.73;9.98;;;25.80;64.50;;;;;;6097144;23;20010;-66
2022/08/27 02:25:00;;;;;;;16.17;9.70;;;25.80;64.80;;;;;;6097064;23;20006;-66
2022/08/27 02:27:26;;;;;;;16.63;9.05;;;25.80;65.40;;;;;;6097395;23;20006;-66
2022/08/27 02:29:52;;;;;;;20.90;9.10;;;25.80;64.70;;;;;;6097306;23;20002;-67
2022/08/27 02:32:19;;;;;;;19.40;8.45;;;25.80;65.30;;;;;;6096997;23;20006;-66
2022/08/27 02:34:44;;;;;;;16.15;7.32;;;25.90;64.80;;;;;;6097017;23;20006;-66
2022/08/27 02:37:10;;;;;;;15.90;10.35;;;25.90;64.90;;;;;;6097154;23;20009;-67
2022/08/27 02:39:36;;;;;;;13.90;9.25;;;25.90;64.90;;;;;;6097101;23;20003;-67
2022/08/27 02:42:02;;;;;;;23.35;11.13;;;25.90;64.90;;;;;;6097019;23;20429;-67
2022/08/27 02:44:27;;;;;;;15.82;10.00;;;25.90;64.90;;;;;;6096748;23;19998;-67
2022/08/27 02:46:53;;;;;;;15.18;10.10;;;25.80;64.80;;;;;;6097110;23;20010;-66
2022/08/27 02:49:18;;;;;;;18.13;9.43;;;25.90;65.10;;;;;;6097043;23;20026;-66
2022/08/27 02:51:44;;;;;;;23.30;10.25;;;25.80;65.00;;;;;;6096894;23;20062;-67
2022/08/27 02:54:10;;;;;;;15.77;9.18;;;25.80;64.90;;;;;;6096925;23;20002;-67
2022/08/27 02:56:38;;;;;;;13.35;9.45;;;25.80;64.80;;;;;;6097093;23;20003;-66
2022/08/27 02:59:04;;;;;;;20.60;9.85;;;25.80;65.00;;;;;;6096814;23;20027;-66
2022/08/27 03:01:29;;;;;;;11.82;9.07;;;25.70;65.00;;;;;;6097045;23;20134;-66
2022/08/27 03:03:57;;;;;;;17.88;9.85;;;25.70;65.10;;;;;;6097064;23;20452;-66
2022/08/27 03:06:22;;;;;;;20.73;9.70;;;25.70;65.20;;;;;;6096836;23;20442;-66
2022/08/27 03:08:48;;;;;;;17.58;10.23;;;25.60;65.10;;;;;;6097038;23;20002;-66
2022/08/27 03:11:13;;;;;;;13.48;9.18;;;25.60;65.20;;;;;;6096896;23;20307;-67
2022/08/27 03:13:39;;;;;;;16.48;9.55;;;25.60;65.10;;;;;;6097269;23;20015;-66
2022/08/27 03:16:06;;;;;;;19.95;9.73;;;25.50;65.40;;;;;;6097023;23;20334;-66
2022/08/27 03:18:33;;;;;;;14.75;9.88;;;25.50;65.40;;;;;;6096716;23;20013;-66
2022/08/27 03:21:00;;;;;;;14.18;9.48;;;25.50;65.50;;;;;;6096833;23;20042;-67
2022/08/27 03:23:31;;;;;;;18.17;9.95;;;25.40;65.70;;;;;;6096702;23;20042;-66
2022/08/27 03:26:00;;;;;;;17.90;10.00;;;25.40;65.80;;;;;;6096936;23;20017;-67
2022/08/27 03:28:32;;;;;;;13.90;10.32;;;25.40;65.90;;;;;;6096967;23;20006;-66
2022/08/27 03:31:01;;;;;;;13.45;9.60;;;25.40;66.20;;;;;;6096754;23;20015;-66
2022/08/27 03:33:29;;;;;;;19.30;9.57;;;25.30;66.30;;;;;;6097051;23;20111;-67
2022/08/27 03:35:54;;;;;;;17.73;9.20;;;25.30;66.40;;;;;;6096671;23;20434;-66
2022/08/27 03:38:20;;;;;;;13.77;9.73;;;25.30;67.00;;;;;;6096802;23;20078;-67
2022/08/27 03:40:47;;;;;;;14.50;9.43;;;25.30;66.30;;;;;;6096470;23;20014;-67
2022/08/27 03:43:14;;;;;;;23.52;9.65;;;25.30;66.30;;;;;;6096884;23;20006;-67
2022/08/27 03:45:42;;;;;;;17.33;9.93;;;25.30;66.40;;;;;;6097212;23;20371;-66
2022/08/27 03:48:09;;;;;;;20.42;8.93;;;25.30;66.40;;;;;;6096949;23;20370;-65
2022/08/27 03:50:38;;;;;;;18.27;9.70;;;25.30;66.50;;;;;;6097181;23;20022;-66
2022/08/27 03:53:04;;;;;;;16.15;10.40;;;25.30;66.40;;;;;;6097031;23;20017;-66
2022/08/27 03:55:29;;;;;;;22.15;9.75;;;25.30;66.40;;;;;;6097033;23;20006;-66
2022/08/27 03:57:55;;;;;;;17.20;9.50;;;25.20;66.50;;;;;;6096704;23;20383;-64
2022/08/27 04:00:23;;;;;;;15.55;8.57;;;25.20;66.60;;;;;;6096761;23;20077;-67
2022/08/27 04:02:50;;;;;;;16.92;8.65;;;25.20;66.70;;;;;;6096486;23;20013;-66
2022/08/27 04:05:15;;;;;;;16.85;9.52;;;25.20;66.80;;;;;;6097776;23;20030;-66
2022/08/27 04:07:42;;;;;;;22.48;9.30;;;25.20;66.80;;;;;;6098680;23;20006;-67
2022/08/27 04:10:10;;;;;;;20.80;9.45;;;25.20;66.80;;;;;;6098373;23;20057;-66
2022/08/27 04:12:36;;;;;;;16.20;9.80;;;25.20;67.40;;;;;;6098742;23;20010;-67
2022/08/27 04:15:03;;;;;;;11.00;9.35;;;25.20;66.80;;;;;;6098530;23;20093;-66
2022/08/27 04:17:29;;;;;;;20.13;9.45;;;25.20;66.90;;;;;;6098234;23;20042;-67
2022/08/27 04:19:56;;;;;;;19.95;9.48;;;25.20;66.90;;;;;;6098643;23;20059;-66
2022/08/27 04:22:22;;;;;;;17.30;8.85;;;25.20;67.00;;;;;;6098248;23;20019;-66
2022/08/27 04:24:48;;;;;;;16.13;9.10;;;25.20;67.10;;;;;;6098172;23;20003;-66
2022/08/27 04:27:15;;;;;;;16.95;9.40;;;25.20;67.00;;;;;;6098096;23;20002;-67
2022/08/27 04:29:41;;;;;;;16.85;9.32;;;25.20;67.00;;;;;;6098427;23;20318;-67
2022/08/27 04:32:07;;;;;;;18.00;9.50;;;25.20;67.00;;;;;;6098192;23;20010;-67
2022/08/27 04:34:33;;;;;;;14.23;9.07;;;25.10;67.10;;;;;;6097939;23;20085;-66
2022/08/27 04:36:59;;;;;;;15.38;9.20;;;25.10;67.20;;;;;;6098094;23;20010;-66
2022/08/27 04:39:29;;;;;;;19.33;9.13;;;25.10;67.30;;;;;;6098314;23;20006;-66
2022/08/27 04:41:58;;;;;;;15.13;8.30;;;25.10;67.50;;;;;;6097874;23;20025;-66
2022/08/27 04:44:26;;;;;;;15.45;9.23;;;25.10;67.70;;;;;;6098394;23;20078;-66
2022/08/27 04:46:58;;;;;;;13.07;9.10;;;25.10;67.60;;;;;;6098104;23;20006;-66
2022/08/27 04:49:25;;;;;;;15.80;9.55;;;25.10;67.80;;;;;;6098270;23;20014;-66
2022/08/27 04:51:50;;;;;;;20.08;9.07;;;25.00;67.60;;;;;;6097911;23;20456;-66
2022/08/27 04:54:16;;;;;;;18.30;8.77;;;25.00;67.70;;;;;;6097911;23;20007;-67
2022/08/27 04:56:42;;;;;;;15.88;9.60;;;25.00;67.60;;;;;;6097791;23;20390;-66
2022/08/27 04:59:09;;;;;;;22.30;9.25;;;25.00;67.60;;;;;;6097249;23;20023;-67
2022/08/27 05:01:36;;;;;;;17.13;10.43;;;25.00;67.60;;;;;;6097886;23;20014;-66
2022/08/27 05:04:03;;;;;;;15.25;9.93;;;25.00;67.80;;;;;;6098132;23;20010;-66
2022/08/27 05:06:29;;;;;;;13.48;9.68;;;25.00;67.90;;;;;;6097945;23;20333;-67
2022/08/27 05:08:55;;;;;;;15.98;10.32;;;25.00;68.20;;;;;;6097541;23;20002;-67
2022/08/27 05:11:23;;;;;;;19.42;10.30;;;25.00;68.20;;;;;;6097603;23;20029;-67
2022/08/27 05:13:49;;;;;;;17.15;9.82;;;25.00;68.10;;;;;;6098022;23;20441;-66
2022/08/27 05:16:18;;;;;;;21.45;10.65;;;25.00;67.90;;;;;;6097955;23;20303;-66
2022/08/27 05:18:44;;;;;;;20.90;10.80;;;25.00;68.00;;;;;;6097547;23;20002;-66
2022/08/27 05:21:17;;;;;;;21.10;11.15;;;25.00;68.10;;;;;;6097285;23;20338;-66
2022/08/27 05:23:43;;;;;;;15.07;10.07;;;25.00;68.00;;;;;;6097868;23;20010;-67
2022/08/27 05:26:08;;;;;;;19.33;10.50;;;25.00;68.60;;;;;;6097703;23;20021;-66
2022/08/27 05:28:34;;;;;;;15.68;9.55;;;25.00;68.60;;;;;;6097607;23;19999;-67
2022/08/27 05:31:06;;;;;;;19.30;10.18;;;25.00;68.80;;;;;;6097621;23;20006;-66
2022/08/27 05:33:32;;;;;;;23.10;9.73;;;25.10;68.90;;;;;;6097621;23;20010;-66
2022/08/27 05:35:59;;;;;;;19.02;8.85;;;25.10;69.00;;;;;;6097533;23;20005;-66
2022/08/27 05:38:28;;;;;;;16.85;8.15;;;25.10;69.10;;;;;;6097585;23;20447;-66
2022/08/27 05:41:05;;;;;;;18.52;7.90;;;25.20;68.90;;;;;;6097686;23;20014;-67
2022/08/27 05:43:31;;;;;;;21.88;7.40;;;25.20;69.00;;;;;;6098000;23;20021;-66
2022/08/27 05:45:57;;;;;;;19.88;7.55;;;25.30;68.90;;;;;;6097358;23;20374;-66
2022/08/27 05:48:22;;;;;;;20.55;8.63;;;25.30;68.80;;;;;;6097427;23;20013;-67
2022/08/27 05:50:48;;;;;;;17.38;8.70;;;25.40;68.90;;;;;;6097675;23;20002;-66
2022/08/27 05:53:14;;;;;;;19.13;8.18;;;25.40;68.90;;;;;;6097427;23;20002;-67
2022/08/27 05:55:42;;;;;;;16.02;8.40;;;25.50;68.80;;;;;;6097375;23;20002;-66
2022/08/27 06:01:03;;;;;;;22.35;8.10;;;25.60;68.90;;;;;;6097043;23;20034;-67
2022/08/27 06:01:03;;;;;;;18.17;7.47;;;25.60;69.10;;;;;;6097068;23;20018;-66
2022/08/27 06:03:33;;;;;;;18.02;7.82;;;25.60;69.10;;;;;;6097404;23;20030;-67
2022/08/27 06:06:03;;;;;;;19.10;7.85;;;25.70;68.90;;;;;;6097065;23;20021;-66
2022/08/27 06:08:30;;;;;;;24.38;8.43;;;25.70;68.40;;;;;;6071678;23;20326;-66
2022/08/27 06:10:55;;;;;;;16.92;6.60;;;25.80;68.00;;;;;;6097396;23;20002;-67
2022/08/27 06:13:22;;;;;;;19.63;6.70;;;25.80;67.60;;;;;;6097417;23;20033;-66
2022/08/27 06:15:48;;;;;;;16.42;6.28;;;25.90;67.40;;;;;;6097435;23;20007;-66
2022/08/27 06:18:14;;;;;;;14.75;6.40;;;26.00;67.20;;;;;;6097203;23;20014;-66
2022/08/27 06:20:40;;;;;;;20.48;7.53;;;26.00;67.00;;;;;;6096903;23;20010;-66
2022/08/27 06:23:06;;;;;;;28.30;8.77;;;26.00;67.00;;;;;;6097073;23;20434;-66
2022/08/27 06:25:32;;;;;;;16.00;6.93;;;26.10;67.40;;;;;;6097350;23;20006;-66
2022/08/27 06:27:58;;;;;;;14.63;6.35;;;26.10;67.20;;;;;;6096714;23;20009;-67
2022/08/27 06:30:24;;;;;;;23.58;6.93;;;26.10;66.70;;;;;;6096943;23;20010;-66
2022/08/27 06:32:50;;;;;;;18.95;6.60;;;26.20;66.40;;;;;;6097171;23;20037;-66
2022/08/27 06:35:17;;;;;;;17.80;6.65;;;26.30;66.10;;;;;;6096960;23;20014;-66
2022/08/27 06:37:43;;;;;;;13.85;6.75;;;26.30;65.90;;;;;;6097096;23;20099;-66
2022/08/27 06:40:09;;;;;;;25.10;7.80;;;26.30;65.70;;;;;;6096844;23;20003;-66
2022/08/27 06:42:37;;;;;;;22.95;7.68;;;26.40;65.60;;;;;;6097270;23;20366;-66
2022/08/27 06:45:03;;;;;;;17.90;7.80;;;26.40;65.60;;;;;;6096887;23;20006;-66
2022/08/27 06:47:32;;;;;;;20.92;6.55;;;26.50;65.90;;;;;;6096982;23;20074;-66
2022/08/27 06:49:58;;;;;;;15.90;6.85;;;26.60;65.90;;;;;;6097463;23;20498;-67
2022/08/27 06:52:24;;;;;;;16.88;6.10;;;26.60;65.50;;;;;;6096744;23;20006;-66
2022/08/27 06:54:50;;;;;;;18.10;6.25;;;26.70;66.00;;;;;;6097165;23;20418;-66
2022/08/27 06:57:16;;;;;;;16.83;6.47;;;26.70;65.10;;;;;;6097043;23;20097;-66
2022/08/27 06:59:43;;;;;;;22.83;7.00;;;26.70;64.90;;;;;;6096836;23;20025;-66
2022/08/27 07:02:09;;;;;;;16.17;5.90;;;26.80;64.70;;;;;;6096449;23;20015;-66
2022/08/27 07:04:35;;;;;;;18.75;6.53;;;26.90;64.60;;;;;;6097181;23;20006;-67
2022/08/27 07:07:02;;;;;;;19.45;6.90;;;27.00;64.60;;;;;;6097220;23;20007;-67
2022/08/27 07:09:30;;;;;;;16.30;5.95;;;27.00;64.20;;;;;;6097112;23;20326;-66
2022/08/27 07:11:57;;;;;;;18.30;6.03;;;27.10;63.90;;;;;;6096851;23;20014;-66
2022/08/27 07:14:23;;;;;;;14.32;6.35;;;27.10;63.60;;;;;;6096979;23;20009;-66
2022/08/27 07:16:50;;;;;;;18.52;6.22;;;27.20;63.50;;;;;;6096879;23;20010;-67
2022/08/27 07:19:16;;;;;;;16.92;6.90;;;27.20;63.60;;;;;;6097247;23;20006;-66
2022/08/27 07:21:42;;;;;;;15.80;6.05;;;27.30;63.70;;;;;;6096721;23;20018;-66
2022/08/27 07:24:08;;;;;;;16.95;5.75;;;27.40;63.60;;;;;;6096771;23;20517;-67
2022/08/27 07:26:38;;;;;;;17.65;5.97;;;27.40;63.60;;;;;;6097316;23;20373;-67
2022/08/27 07:29:05;;;;;;;18.85;5.82;;;27.50;63.50;;;;;;6096820;23;20476;-66
2022/08/27 07:31:34;;;;;;;20.58;6.57;;;27.60;63.50;;;;;;6097053;23;20009;-66
2022/08/27 07:34:00;;;;;;;19.70;6.25;;;27.60;63.40;;;;;;6097053;23;20047;-67
2022/08/27 07:36:26;;;;;;;22.02;6.00;;;27.70;63.20;;;;;;6096843;23;20007;-66
2022/08/27 07:38:52;;;;;;;16.23;5.93;;;27.70;63.00;;;;;;6097831;23;20054;-66
2022/08/27 07:41:18;;;;;;;13.90;6.60;;;27.80;62.80;;;;;;6098722;23;20018;-67
2022/08/27 07:46:27;;;;;;;21.40;5.70;;;27.90;62.30;;;;;;6098792;23;20060;-67
2022/08/27 07:48:57;;;;;;;19.98;6.05;;;28.00;62.30;;;;;;6098675;23;19999;-66
2022/08/27 07:51:26;;;;;;;15.90;5.65;;;28.10;62.20;;;;;;6098989;23;20033;-66
2022/08/27 07:53:52;;;;;;;21.50;5.90;;;28.20;62.10;;;;;;6098724;23;20006;-66
2022/08/27 07:56:21;;;;;;;18.48;5.82;;;28.20;61.90;;;;;;6098691;23;20014;-66
2022/08/27 07:58:47;;;;;;;16.55;6.13;;;28.30;61.70;;;;;;6098247;23;20022;-66
2022/08/27 08:01:13;;;;;;;24.58;5.78;;;28.40;61.70;;;;;;6098918;23;20101;-66
2022/08/27 08:03:40;;;;;;;13.57;5.70;;;28.40;61.60;;;;;;6098845;23;20038;-66
2022/08/27 08:06:09;;;;;;;24.08;6.80;;;28.50;61.30;;;;;;6098532;23;20037;-66
2022/08/27 08:08:36;;;;;;;17.80;5.85;;;28.60;61.40;;;;;;6098570;23;20007;-66
2022/08/27 08:11:02;;;;;;;14.05;5.38;;;28.70;61.00;;;;;;6098696;23;20010;-66
2022/08/27 08:13:29;;;;;;;21.58;5.60;;;28.80;60.70;;;;;;6098915;23;20013;-67
2022/08/27 08:15:56;;;;;;;16.42;6.00;;;28.80;60.60;;;;;;6098220;23;20085;-66
2022/08/27 08:18:22;;;;;;;20.55;5.75;;;28.90;60.60;;;;;;6098403;23;20081;-66
2022/08/27 08:20:48;;;;;;;21.55;5.78;;;29.00;60.50;;;;;;6098076;23;20397;-67
2022/08/27 08:23:13;;;;;;;20.13;5.82;;;29.00;60.20;;;;;;6098159;23;20003;-66
2022/08/27 08:25:40;;;;;;;20.50;6.32;;;29.10;60.00;;;;;;6098540;23;20481;-66
2022/08/27 08:28:06;;;;;;;19.27;5.50;;;29.20;59.60;;;;;;6098414;23;20006;-67
2022/08/27 08:30:32;;;;;;;18.70;5.55;;;29.20;59.60;;;;;;6098920;23;20011;-67
2022/08/27 08:32:58;;;;;;;26.92;5.90;;;29.30;59.30;;;;;;6098307;23;20085;-66
2022/08/27 08:35:24;;;;;;;29.80;6.35;;;29.40;59.30;;;;;;6098079;23;20369;-66
2022/08/27 08:37:49;;;;;;;26.90;6.90;;;29.40;58.60;;;;;;6097951;23;20018;-66
2022/08/27 08:40:32;;;;;;;26.90;6.53;;;29.50;58.00;;;;;;6097950;23;20019;-66
2022/08/27 08:42:59;;;;;;;16.25;7.05;;;29.50;57.20;;;;;;6098057;23;20017;-67
2022/08/27 08:45:30;;;;;;;17.25;6.07;;;29.60;56.60;;;;;;6098160;23;20430;-66
2022/08/27 08:48:05;;;;;;;24.25;6.60;;;29.70;56.40;;;;;;6098112;23;20016;-66
2022/08/27 08:50:36;;;;;;;20.10;6.30;;;29.60;56.10;;;;;;6098107;23;19998;-67
2022/08/27 08:53:35;;;;;;;17.92;5.95;;;29.70;55.80;;;;;;6098446;23;20089;-67
2022/08/27 08:56:03;;;;;;;15.15;6.45;;;29.70;55.80;;;;;;6098034;23;20012;-67
2022/08/27 08:58:38;;;;;;;27.80;6.93;;;29.80;55.80;;;;;;6097843;23;20023;-67
2022/08/27 09:01:07;;;;;;;15.63;6.25;;;29.90;55.70;;;;;;6098221;23;20342;-66
2022/08/27 09:03:39;;;;;;;17.80;6.55;;;30.00;55.20;;;;;;6097930;23;20050;-66
2022/08/27 09:06:15;;;;;;;14.93;6.35;;;30.10;55.00;;;;;;6098158;23;20070;-67
2022/08/27 09:08:42;;;;;;;15.70;6.20;;;30.20;55.00;;;;;;6098024;23;20002;-67
2022/08/27 09:11:20;;;;;;;24.80;7.05;;;30.30;55.00;;;;;;6097821;23;20013;-66
2022/08/27 09:13:50;;;;;;;23.25;5.93;;;30.30;54.80;;;;;;6097595;23;20002;-67
2022/08/27 09:16:17;;;;;;;21.80;6.07;;;30.40;54.10;;;;;;6097923;23;20009;-66
2022/08/27 09:18:44;;;;;;;24.60;6.20;;;30.50;53.30;;;;;;6097721;23;20006;-67
2022/08/27 09:21:17;;;;;;;17.90;6.57;;;30.50;53.20;;;;;;6097647;23;20029;-66
2022/08/27 09:24:01;;;;;;;19.60;6.60;;;30.60;53.40;;;;;;6098058;23;20016;-67
2022/08/27 09:26:32;;;;;;;28.95;7.50;;;30.60;52.90;;;;;;6097668;23;20335;-67
2022/08/27 09:29:18;;;;;;;15.98;6.43;;;30.70;52.50;;;;;;6097478;23;20005;-67
2022/08/27 09:31:47;;;;;;;18.80;6.40;;;30.70;52.90;;;;;;6097956;23;20006;-67
2022/08/27 09:34:14;;;;;;;22.98;7.10;;;30.80;53.00;;;;;;6097545;23;19999;-66
2022/08/27 09:36:52;;;;;;;20.63;6.70;;;30.90;52.60;;;;;;6097499;23;20077;-67
2022/08/27 09:39:24;;;;;;;17.75;6.72;;;31.00;51.90;;;;;;6097726;23;20006;-67
2022/08/27 09:41:50;;;;;;;19.13;6.43;;;31.10;51.70;;;;;;6097541;23;20018;-67
2022/08/27 09:44:19;;;;;;;20.90;6.30;;;31.20;51.70;;;;;;6097246;23;20017;-67
2022/08/27 09:46:53;;;;;;;21.30;6.90;;;31.30;51.10;;;;;;6097537;23;20010;-67
2022/08/27 09:49:18;;;;;;;21.15;6.97;;;31.20;51.10;;;;;;6097657;23;20032;-67
2022/08/27 09:51:46;;;;;;;24.13;7.32;;;31.30;51.00;;;;;;6097347;23;20437;-67
2022/08/27 09:54:23;;;;;;;17.10;6.63;;;31.20;50.80;;;;;;6097467;23;20010;-67
2022/08/27 09:56:49;;;;;;;20.75;6.78;;;31.10;50.60;;;;;;6097305;23;20005;-67
2022/08/27 09:59:36;;;;;;;14.13;6.55;;;31.10;51.00;;;;;;6096872;23;20027;-67
2022/08/27 10:02:16;;;;;;;21.73;7.03;;;31.00;51.20;;;;;;6096743;23;20025;-67
2022/08/27 10:04:51;;;;;;;14.55;6.22;;;30.90;51.30;;;;;;6097407;23;20007;-67
2022/08/27 10:07:25;;;;;;;18.17;6.68;;;30.80;51.50;;;;;;6097294;23;20021;-67
2022/08/27 10:10:24;;;;;;;23.13;7.50;;;30.80;52.10;;;;;;6096923;23;20014;-67
2022/08/27 10:13:16;;;;;;;16.85;7.00;;;30.70;52.50;;;;;;6097236;23;20082;-67
2022/08/27 10:15:54;;;;;;;;;;;30.60;52.60;;;;;;6059003;23;20006;-67
2022/08/27 10:18:37;;;;;;;18.98;7.97;;;30.60;53.00;;;;;;6097234;23;19901;-66
2022/08/27 10:21:31;;;;;;;12.73;7.15;;;30.50;53.00;;;;;;6097547;23;20019;-67
2022/08/27 10:24:17;;;;;;;23.92;7.40;;;30.40;53.00;;;;;;6096999;23;20002;-67
2022/08/27 10:26:56;;;;;;;20.85;7.72;;;30.40;53.30;;;;;;6097101;23;20512;-67
2022/08/27 10:29:44;;;;;;;29.83;8.20;;;30.40;53.70;;;;;;6097306;23;20002;-67
2022/08/27 10:32:40;;;;;;;15.07;7.00;;;30.30;53.60;;;;;;6097284;23;20033;-66
2022/08/27 10:35:18;;;;;;;25.75;8.10;;;30.30;53.40;;;;;;6097160;23;20187;-67
2022/08/27 10:38:12;;;;;;;23.27;7.65;;;30.40;53.60;;;;;;6096988;23;20002;-67
2022/08/27 10:41:09;;;;;;;22.55;7.57;;;30.40;53.70;;;;;;6096907;23;20025;-67
2022/08/27 10:44:10;;;;;;;21.50;8.25;;;30.40;53.70;;;;;;6066935;23;20010;-67
2022/08/27 10:47:08;;;;;;;19.00;8.20;;;30.40;53.50;;;;;;6081871;23;20013;-67
2022/08/27 10:49:34;;;;;;;34.13;9.98;;;30.40;53.50;;;;;;6048405;23;20016;-66
2022/08/27 10:52:11;;;;;;;18.05;8.45;;;30.40;53.50;;;;;;6096683;23;20042;-67
2022/08/27 10:54:59;;;;;;;24.10;8.52;;;30.40;53.40;;;;;;6096946;23;20035;-66
2022/08/27 10:57:43;;;;;;;12.07;8.00;;;30.40;53.90;;;;;;6097072;23;20496;-67
2022/08/27 11:00:16;;;;;;;25.55;8.43;;;30.40;54.70;;;;;;6096643;23;20326;-67
2022/08/27 11:02:53;;;;;;;27.02;8.25;;;30.40;55.80;;;;;;6096725;23;20041;-67
2022/08/27 11:05:39;;;;;;;25.08;8.18;;;30.40;56.60;;;;;;6097027;23;20003;-67
2022/08/27 11:08:08;;;;;;;21.88;8.23;;;30.30;56.20;;;;;;6097172;23;20407;-66
2022/08/27 11:10:49;;;;;;;15.82;8.02;;;30.30;56.50;;;;;;6097176;23;20007;-67
2022/08/27 11:13:26;;;;;;;23.67;8.95;;;30.40;56.70;;;;;;6097790;23;20007;-66
2022/08/27 11:15:55;;;;;;;19.30;7.97;;;30.50;56.50;;;;;;6098931;23;20386;-67
2022/08/27 11:18:47;;;;;;;16.75;7.03;;;30.50;56.40;;;;;;6098670;23;20003;-67
2022/08/27 11:21:20;;;;;;;15.77;6.70;;;30.60;55.10;;;;;;6098867;23;20441;-68
2022/08/27 11:23:53;;;;;;;16.52;7.60;;;30.50;53.00;;;;;;6098889;23;20003;-67
2022/08/27 11:26:19;;;;;;;13.75;6.93;;;30.40;55.00;;;;;;6099074;23;20065;-67
2022/08/27 11:29:00;;;;;;;15.02;4.38;;;30.30;55.20;;;;;;6098795;23;20361;-67
2022/08/27 11:31:52;;;;;;;19.90;5.30;;;30.00;51.80;;;;;;6098719;23;20002;-66
2022/08/27 11:34:44;;;;;;;10.77;3.90;;;29.60;52.20;;;;;;6099068;23;20438;-66
2022/08/27 11:37:17;;;;;;;25.35;3.60;;;29.20;53.80;;;;;;6097806;23;20089;-66
2022/08/27 11:40:17;;;;;;;17.15;4.47;;;28.80;54.50;;;;;;6098563;23;20082;-66
2022/08/27 11:42:50;;;;;;;9.25;4.10;;;28.40;55.60;;;;;;6098265;23;20018;-67
2022/08/27 11:45:33;;;;;;;10.32;4.18;;;28.10;56.70;;;;;;6098400;23;20041;-66
2022/08/27 11:48:33;;;;;;;9.43;5.07;;;27.80;57.50;;;;;;6098597;23;20010;-66
2022/08/27 11:51:09;;;;;;;11.20;5.22;;;27.70;58.50;;;;;;6098454;23;20065;-66
2022/08/27 11:53:38;;;;;;;9.40;5.00;;;27.60;59.00;;;;;;6098862;23;20338;-66
2022/08/27 11:56:18;;;;;;;8.65;5.53;;;27.60;59.50;;;;;;6098404;23;20006;-66
2022/08/27 11:58:44;;;;;;;13.52;5.78;;;27.60;59.80;;;;;;6098288;23;20026;-66
2022/08/27 12:01:28;;;;;;;8.32;4.53;;;27.60;59.70;;;;;;6098615;23;20018;-66
2022/08/27 12:04:06;;;;;;;8.95;4.53;;;27.60;59.70;;;;;;6098359;23;20003;-66
2022/08/27 12:06:43;;;;;;;11.55;5.68;;;27.70;59.90;;;;;;6098546;23;20003;-66
2022/08/27 12:09:22;;;;;;;9.73;5.43;;;27.80;60.30;;;;;;6098683;23;20059;-67
2022/08/27 12:11:59;;;;;;;13.23;6.03;;;27.80;59.70;;;;;;6098304;23;20450;-66
2022/08/27 12:14:42;;;;;;;14.70;5.13;;;27.90;58.30;;;;;;6098547;23;20018;-66
2022/08/27 12:17:36;;;;;;;9.55;5.15;;;27.90;57.60;;;;;;6098257;23;20006;-66
2022/08/27 12:20:22;;;;;;;9.25;5.05;;;27.90;56.80;;;;;;6098208;23;20003;-66
2022/08/27 12:26:27;;;;;;;15.35;5.95;;;28.00;56.40;;;;;;6097865;23;20050;-66
2022/08/27 12:29:31;;;;;;;9.68;4.88;;;28.10;56.90;;;;;;6098107;23;20322;-67
2022/08/27 12:32:31;;;;;;;8.75;4.38;;;28.30;56.70;;;;;;6098260;23;20006;-67
2022/08/27 12:35:15;;;;;;;7.57;4.10;;;28.70;55.80;;;;;;6098513;23;20049;-66
2022/08/27 12:38:09;;;;;;;6.60;4.00;;;29.10;53.00;;;;;;6098043;23;20418;-66
2022/08/27 12:40:41;;;;;;;9.73;4.13;;;29.30;52.30;;;;;;6098047;23;20010;-67
2022/08/27 12:43:32;;;;;;;8.20;3.85;;;29.40;51.80;;;;;;6098252;23;20508;-66
2022/08/27 12:46:06;;;;;;;8.88;5.03;;;29.60;51.30;;;;;;6098081;23;20077;-66
2022/08/27 12:48:42;;;;;;;13.80;4.90;;;29.70;50.90;;;;;;6098155;23;20054;-67
2022/08/27 12:51:14;;;;;;;7.90;4.57;;;29.60;51.10;;;;;;6098360;23;20021;-67
2022/08/27 12:53:45;;;;;;;8.65;4.50;;;29.60;51.60;;;;;;6098143;23;20484;-67
2022/08/27 12:56:46;;;;;;;8.00;4.45;;;29.50;51.40;;;;;;6097859;23;20473;-67
2022/08/27 12:59:43;;;;;;;9.23;4.80;;;29.50;51.30;;;;;;6086136;23;20022;-66
2022/08/27 13:02:42;;;;;;;11.80;4.72;;;29.50;51.80;;;;;;6097797;23;20014;-66